Randolph, New Jersey
Current Conditions -  °F | °C
As of 5:35 AM on Thursday 18 Dec 2014 (Local Time) from KMMU Reporting Station
NA  
Wind Chill: 33°   Ceiling: NA
Heat Index: 39°   Visibility: 10mi
Dew Point: 21°   Wind: 9mph
Humidity: 49%   Direction: 290°WNW
Pressure: 29.95"   Gusts: 16mph
Location:  40.84°N, 74.57°W
Report Text: KMMU 181035Z AUTO 29008G14KT 10SM 04/M06 A2995 RMK AO2
Loading
Personal Weather Stations






























Interactive Weather Map New forecast layout! Learn more

10-Day Weather Forecast

Advertisements
Track Severe Weather on mobile